Fargo, ND (58102)

4:22 PM CST on February 13, 2016 (GMT -0600)
Hector International | | Change Station
CLOSE
Current Station
Airport
Location: Fargo,
Elevation: 899 ft
Nearby Weather Stations
Active Advisory: Winter Weather Advisory

Elev 899 ft 46.91 °N, 96.81 °W | Updated 29 minutes ago

Overcast
Overcast
13 °F
Feels Like -3 °F
N
15
Wind Variable Wind from SSE
Gusts 25 mph

Today
High -- | Low -- °F
--% Chance of Precip.
Yesterday
High -- | Low -- °F
Precip. -- in
Pressure 30.35 in
Visibility 10.0 miles
Clouds Overcast 4600 ft
Windchill -3 °F
Dew Point 0 °F
Humidity 56%
Rainfall 0.00 in
Snow Depth Not available.
7:35 AM 5:48 PM
Waxing Crescent, 34% visible
METAR KFAR 132153Z 15013G22KT 10SM OVC046 M11/M18 A3027 RMK AO2 SLP276 T11061178
Pressure 30.35 in
Visibility 10.0 miles
Clouds Overcast 4600 ft
Windchill -3 °F
Dew Point 0 °F
Humidity 56%
Rainfall 0.00 in
Snow Depth Not available.
7:35 AM 5:48 PM
Waxing Crescent, 34% visible
METAR KFAR 132153Z 15013G22KT 10SM OVC046 M11/M18 A3027 RMK AO2 SLP276 T11061178

10-Day Weather Forecast

Almanac

Astronomy

Feb. 13, 2016 Rise Set
Actual Time
Civil Twilight
Nautical Twilight
Astronomical Twilight
Moon
Length of Visible Light
Length of Day
Tomorrow will be .
, % of the Moon is Illuminated

Today's Extremes

State Highs State Lows

Community

WunderPhotos

Upload Photos

1,892,688 photos uploaded!

WunderBlog® & News

Nearby

Air Quality

  Air Quality AQ Index Pollutant
Not available.

Snow Depth

Station Depth Elevation

Earthquake Activity

City Distance Mag. Time & Date
Minimum magnitude displayed is 2.5.

Coastal Water Temperatures

Place Temperature

Stations

Nearby Weather Stations

Station Location Temp. Windchill Dew Point Humidity Wind Precip. Elev Updated Type
                   

Watches & Warnings

Winter Weather Advisory
Issued: 3:25 PM CST Feb. 13, 2016 – National Weather Service

... Winter Weather Advisory remains in effect until noon CST
Sunday...

* timing... expect snow to develop around 8 PM near Devils
Lake... and around midnight in the Red River valley diminishing
around noon Sunday.

* Precipitation rates... the heaviest snowfall rates will occur
between midnight and 6 am Sunday.

* Snow accumulations... total snow accumulations of 2 to 4
inches... with localized amounts up to 5 inches... are expected.

* Winds / visibilities... look for reduced visibilities at times to
one half mile or less.

* Impacts... plan on slippery Road conditions.

Precautionary/preparedness actions...

A Winter Weather Advisory for snow means periods of snow will
cause primarily travel difficulties. Be prepared for snow covered
roads and limited visibilities... and use caution while driving.
The latest Road conditions for the state you are calling from can
be obtained by calling 5 1 1.


Dk